sensor_id;sensor_type;location;lat;lon;timestamp;temperature;humidity
5960;DHT22;3006;50.956;7.002;2023-09-19T00:00:39;18.10;73.90
5960;DHT22;3006;50.956;7.002;2023-09-19T00:03:09;18.20;73.30
5960;DHT22;3006;50.956;7.002;2023-09-19T00:05:39;18.20;73.00
5960;DHT22;3006;50.956;7.002;2023-09-19T00:08:12;18.10;73.10
5960;DHT22;3006;50.956;7.002;2023-09-19T00:10:41;18.10;73.80
5960;DHT22;3006;50.956;7.002;2023-09-19T00:13:11;18.10;73.50
5960;DHT22;3006;50.956;7.002;2023-09-19T00:15:43;18.10;73.00
5960;DHT22;3006;50.956;7.002;2023-09-19T00:18:15;18.10;73.90
5960;DHT22;3006;50.956;7.002;2023-09-19T00:20:44;18.20;72.90
5960;DHT22;3006;50.956;7.002;2023-09-19T00:23:14;18.10;73.00
5960;DHT22;3006;50.956;7.002;2023-09-19T00:25:43;18.00;73.10
5960;DHT22;3006;50.956;7.002;2023-09-19T00:28:13;17.80;73.80
5960;DHT22;3006;50.956;7.002;2023-09-19T00:30:42;18.00;74.30
5960;DHT22;3006;50.956;7.002;2023-09-19T00:33:11;17.80;74.30
5960;DHT22;3006;50.956;7.002;2023-09-19T00:35:47;17.60;74.80
5960;DHT22;3006;50.956;7.002;2023-09-19T00:38:15;17.60;74.50
5960;DHT22;3006;50.956;7.002;2023-09-19T00:40:48;17.70;74.50
5960;DHT22;3006;50.956;7.002;2023-09-19T00:43:19;17.80;74.40
5960;DHT22;3006;50.956;7.002;2023-09-19T00:45:49;17.80;74.10
5960;DHT22;3006;50.956;7.002;2023-09-19T00:48:19;17.80;73.90
5960;DHT22;3006;50.956;7.002;2023-09-19T00:50:48;17.80;73.80
5960;DHT22;3006;50.956;7.002;2023-09-19T00:53:20;17.80;73.90
5960;DHT22;3006;50.956;7.002;2023-09-19T00:55:50;17.80;74.00
5960;DHT22;3006;50.956;7.002;2023-09-19T00:58:20;17.80;74.30
5960;DHT22;3006;50.956;7.002;2023-09-19T01:00:49;17.90;73.20
5960;DHT22;3006;50.956;7.002;2023-09-19T01:03:18;17.80;73.70
5960;DHT22;3006;50.956;7.002;2023-09-19T01:05:46;17.90;73.10
5960;DHT22;3006;50.956;7.002;2023-09-19T01:08:15;17.60;74.10
5960;DHT22;3006;50.956;7.002;2023-09-19T01:10:57;17.70;74.50
5960;DHT22;3006;50.956;7.002;2023-09-19T01:13:34;17.80;73.80
5960;DHT22;3006;50.956;7.002;2023-09-19T01:16:09;17.80;73.60
5960;DHT22;3006;50.956;7.002;2023-09-19T01:18:46;17.80;73.80
5960;DHT22;3006;50.956;7.002;2023-09-19T01:21:26;17.80;74.00
5960;DHT22;3006;50.956;7.002;2023-09-19T01:24:31;18.00;73.70
5960;DHT22;3006;50.956;7.002;2023-09-19T01:27:17;18.00;73.60
5960;DHT22;3006;50.956;7.002;2023-09-19T01:29:50;17.80;74.10
5960;DHT22;3006;50.956;7.002;2023-09-19T01:32:22;17.70;73.60
5960;DHT22;3006;50.956;7.002;2023-09-19T01:34:55;17.50;74.00
5960;DHT22;3006;50.956;7.002;2023-09-19T01:37:26;17.60;74.30
5960;DHT22;3006;50.956;7.002;2023-09-19T01:40:00;17.60;74.40
5960;DHT22;3006;50.956;7.002;2023-09-19T01:42:45;17.60;74.30
5960;DHT22;3006;50.956;7.002;2023-09-19T01:45:24;17.60;73.70
5960;DHT22;3006;50.956;7.002;2023-09-19T01:47:56;17.60;73.70
5960;DHT22;3006;50.956;7.002;2023-09-19T01:50:30;17.50;73.90
5960;DHT22;3006;50.956;7.002;2023-09-19T01:53:07;17.60;74.10
5960;DHT22;3006;50.956;7.002;2023-09-19T01:55:45;17.60;73.60
5960;DHT22;3006;50.956;7.002;2023-09-19T01:58:20;17.60;73.30
5960;DHT22;3006;50.956;7.002;2023-09-19T02:00:49;17.60;73.70
5960;DHT22;3006;50.956;7.002;2023-09-19T02:03:21;17.40;73.70
5960;DHT22;3006;50.956;7.002;2023-09-19T02:05:50;17.40;72.90
5960;DHT22;3006;50.956;7.002;2023-09-19T02:08:22;17.30;72.70
5960;DHT22;3006;50.956;7.002;2023-09-19T02:10:51;17.40;73.10
5960;DHT22;3006;50.956;7.002;2023-09-19T02:13:20;17.40;71.90
5960;DHT22;3006;50.956;7.002;2023-09-19T02:15:49;17.40;71.70
5960;DHT22;3006;50.956;7.002;2023-09-19T02:18:17;17.20;72.20
5960;DHT22;3006;50.956;7.002;2023-09-19T02:20:46;17.30;73.40
5960;DHT22;3006;50.956;7.002;2023-09-19T02:23:15;17.40;71.90
5960;DHT22;3006;50.956;7.002;2023-09-19T02:25:51;17.20;71.90
5960;DHT22;3006;50.956;7.002;2023-09-19T02:28:21;17.20;72.70
5960;DHT22;3006;50.956;7.002;2023-09-19T02:30:50;17.30;71.40
5960;DHT22;3006;50.956;7.002;2023-09-19T02:33:18;17.40;72.20
5960;DHT22;3006;50.956;7.002;2023-09-19T02:35:48;17.50;71.10
5960;DHT22;3006;50.956;7.002;2023-09-19T02:38:17;17.50;71.50
5960;DHT22;3006;50.956;7.002;2023-09-19T02:40:51;17.50;70.30
5960;DHT22;3006;50.956;7.002;2023-09-19T02:43:20;17.40;70.90
5960;DHT22;3006;50.956;7.002;2023-09-19T02:45:48;17.50;69.90
5960;DHT22;3006;50.956;7.002;2023-09-19T02:48:17;17.20;70.50
5960;DHT22;3006;50.956;7.002;2023-09-19T02:50:50;17.20;71.10
5960;DHT22;3006;50.956;7.002;2023-09-19T02:53:19;17.00;72.00
5960;DHT22;3006;50.956;7.002;2023-09-19T02:55:47;17.20;71.80
5960;DHT22;3006;50.956;7.002;2023-09-19T02:58:16;17.20;72.20
5960;DHT22;3006;50.956;7.002;2023-09-19T03:00:46;17.20;71.70
5960;DHT22;3006;50.956;7.002;2023-09-19T03:03:17;17.00;72.20
5960;DHT22;3006;50.956;7.002;2023-09-19T03:05:46;17.00;73.00
5960;DHT22;3006;50.956;7.002;2023-09-19T03:08:19;17.10;72.80
5960;DHT22;3006;50.956;7.002;2023-09-19T03:10:48;16.90;73.50
5960;DHT22;3006;50.956;7.002;2023-09-19T03:13:17;17.00;72.90
5960;DHT22;3006;50.956;7.002;2023-09-19T03:15:46;16.90;73.30
5960;DHT22;3006;50.956;7.002;2023-09-19T03:18:21;17.00;73.40
5960;DHT22;3006;50.956;7.002;2023-09-19T03:20:53;17.10;72.90
5960;DHT22;3006;50.956;7.002;2023-09-19T03:23:23;17.00;73.10
5960;DHT22;3006;50.956;7.002;2023-09-19T03:25:53;16.80;74.20
5960;DHT22;3006;50.956;7.002;2023-09-19T03:28:23;17.00;73.60
5960;DHT22;3006;50.956;7.002;2023-09-19T03:31:00;16.90;73.40
5960;DHT22;3006;50.956;7.002;2023-09-19T03:33:30;16.80;74.30
5960;DHT22;3006;50.956;7.002;2023-09-19T03:36:01;16.90;73.70
5960;DHT22;3006;50.956;7.002;2023-09-19T03:38:33;16.90;74.40
5960;DHT22;3006;50.956;7.002;2023-09-19T03:41:02;17.00;73.70
5960;DHT22;3006;50.956;7.002;2023-09-19T03:43:33;16.90;73.40
5960;DHT22;3006;50.956;7.002;2023-09-19T03:46:02;17.00;73.70
5960;DHT22;3006;50.956;7.002;2023-09-19T03:48:32;16.90;73.70
5960;DHT22;3006;50.956;7.002;2023-09-19T03:51:01;17.00;73.30
5960;DHT22;3006;50.956;7.002;2023-09-19T03:53:30;16.90;74.20
5960;DHT22;3006;50.956;7.002;2023-09-19T03:55:59;16.90;73.60
5960;DHT22;3006;50.956;7.002;2023-09-19T03:58:30;16.90;74.00
5960;DHT22;3006;50.956;7.002;2023-09-19T04:01:01;16.80;74.10
5960;DHT22;3006;50.956;7.002;2023-09-19T04:03:29;16.80;74.60
5960;DHT22;3006;50.956;7.002;2023-09-19T04:06:03;17.00;74.20
5960;DHT22;3006;50.956;7.002;2023-09-19T04:08:31;16.90;73.30
5960;DHT22;3006;50.956;7.002;2023-09-19T04:11:01;16.50;75.00
5960;DHT22;3006;50.956;7.002;2023-09-19T04:13:29;16.70;74.30
5960;DHT22;3006;50.956;7.002;2023-09-19T04:15:57;16.90;74.00
5960;DHT22;3006;50.956;7.002;2023-09-19T04:18:26;16.80;73.70
5960;DHT22;3006;50.956;7.002;2023-09-19T04:20:54;16.70;73.50
5960;DHT22;3006;50.956;7.002;2023-09-19T04:23:23;16.70;73.90
5960;DHT22;3006;50.956;7.002;2023-09-19T04:25:51;16.80;73.60
5960;DHT22;3006;50.956;7.002;2023-09-19T04:28:22;16.70;74.00
5960;DHT22;3006;50.956;7.002;2023-09-19T04:30:51;16.70;73.70
5960;DHT22;3006;50.956;7.002;2023-09-19T04:33:19;16.80;74.30
5960;DHT22;3006;50.956;7.002;2023-09-19T04:35:49;16.90;73.20
5960;DHT22;3006;50.956;7.002;2023-09-19T04:38:17;16.90;72.70
5960;DHT22;3006;50.956;7.002;2023-09-19T04:40:46;16.70;72.10
5960;DHT22;3006;50.956;7.002;2023-09-19T04:43:14;16.70;72.40
5960;DHT22;3006;50.956;7.002;2023-09-19T04:45:45;16.60;72.50
5960;DHT22;3006;50.956;7.002;2023-09-19T04:48:13;16.60;72.30
5960;DHT22;3006;50.956;7.002;2023-09-19T04:50:42;16.60;72.70
5960;DHT22;3006;50.956;7.002;2023-09-19T04:53:11;16.60;71.70
5960;DHT22;3006;50.956;7.002;2023-09-19T04:55:39;16.70;71.50
5960;DHT22;3006;50.956;7.002;2023-09-19T04:58:07;16.70;72.10
5960;DHT22;3006;50.956;7.002;2023-09-19T05:00:35;16.70;71.20
5960;DHT22;3006;50.956;7.002;2023-09-19T05:03:05;16.70;70.60
5960;DHT22;3006;50.956;7.002;2023-09-19T05:05:35;16.80;70.70
5960;DHT22;3006;50.956;7.002;2023-09-19T05:08:05;16.60;70.60
5960;DHT22;3006;50.956;7.002;2023-09-19T05:10:35;16.40;70.40
5960;DHT22;3006;50.956;7.002;2023-09-19T05:13:05;16.40;70.50
5960;DHT22;3006;50.956;7.002;2023-09-19T05:15:34;16.60;70.30
5960;DHT22;3006;50.956;7.002;2023-09-19T05:18:05;16.60;70.00
5960;DHT22;3006;50.956;7.002;2023-09-19T05:20:33;16.60;70.20
5960;DHT22;3006;50.956;7.002;2023-09-19T05:23:06;16.60;70.10
5960;DHT22;3006;50.956;7.002;2023-09-19T05:25:39;16.60;70.10
5960;DHT22;3006;50.956;7.002;2023-09-19T05:28:10;16.50;70.70
5960;DHT22;3006;50.956;7.002;2023-09-19T05:30:41;16.60;70.20
5960;DHT22;3006;50.956;7.002;2023-09-19T05:33:16;16.60;70.20
5960;DHT22;3006;50.956;7.002;2023-09-19T05:35:45;16.50;70.70
5960;DHT22;3006;50.956;7.002;2023-09-19T05:38:13;16.50;70.70
5960;DHT22;3006;50.956;7.002;2023-09-19T05:40:46;16.60;70.90
5960;DHT22;3006;50.956;7.002;2023-09-19T05:43:14;16.60;70.50
5960;DHT22;3006;50.956;7.002;2023-09-19T05:45:42;16.60;70.70
5960;DHT22;3006;50.956;7.002;2023-09-19T05:48:13;16.60;71.10
5960;DHT22;3006;50.956;7.002;2023-09-19T05:50:43;16.50;71.40
5960;DHT22;3006;50.956;7.002;2023-09-19T05:53:13;16.60;71.20
5960;DHT22;3006;50.956;7.002;2023-09-19T05:55:42;16.60;71.10
5960;DHT22;3006;50.956;7.002;2023-09-19T05:58:11;16.60;70.50
5960;DHT22;3006;50.956;7.002;2023-09-19T06:00:41;16.60;71.00
5960;DHT22;3006;50.956;7.002;2023-09-19T06:03:11;16.60;71.00
5960;DHT22;3006;50.956;7.002;2023-09-19T06:05:42;16.50;71.40
5960;DHT22;3006;50.956;7.002;2023-09-19T06:08:10;16.40;71.60
5960;DHT22;3006;50.956;7.002;2023-09-19T06:10:38;16.50;71.40
5960;DHT22;3006;50.956;7.002;2023-09-19T06:13:07;16.40;71.70
5960;DHT22;3006;50.956;7.002;2023-09-19T06:15:37;16.50;71.30
5960;DHT22;3006;50.956;7.002;2023-09-19T06:18:10;16.60;71.50
5960;DHT22;3006;50.956;7.002;2023-09-19T06:20:43;16.60;71.60
5960;DHT22;3006;50.956;7.002;2023-09-19T06:23:12;16.60;71.50
5960;DHT22;3006;50.956;7.002;2023-09-19T06:25:40;16.50;71.70
5960;DHT22;3006;50.956;7.002;2023-09-19T06:28:10;16.40;72.70
5960;DHT22;3006;50.956;7.002;2023-09-19T06:30:40;16.50;72.50
5960;DHT22;3006;50.956;7.002;2023-09-19T06:33:08;16.50;72.50
5960;DHT22;3006;50.956;7.002;2023-09-19T06:35:38;16.40;72.60
5960;DHT22;3006;50.956;7.002;2023-09-19T06:38:09;16.40;73.00
5960;DHT22;3006;50.956;7.002;2023-09-19T06:40:40;16.50;72.70
5960;DHT22;3006;50.956;7.002;2023-09-19T06:43:10;16.40;73.00
5960;DHT22;3006;50.956;7.002;2023-09-19T06:45:38;16.50;72.80
5960;DHT22;3006;50.956;7.002;2023-09-19T06:48:07;16.50;72.70
5960;DHT22;3006;50.956;7.002;2023-09-19T06:50:37;16.50;72.70
5960;DHT22;3006;50.956;7.002;2023-09-19T06:53:05;16.60;72.50
5960;DHT22;3006;50.956;7.002;2023-09-19T06:55:35;16.60;72.50
5960;DHT22;3006;50.956;7.002;2023-09-19T06:58:03;16.60;72.50
5960;DHT22;3006;50.956;7.002;2023-09-19T07:00:33;16.70;72.30
5960;DHT22;3006;50.956;7.002;2023-09-19T07:03:04;16.70;72.60
5960;DHT22;3006;50.956;7.002;2023-09-19T07:05:35;16.80;72.50
5960;DHT22;3006;50.956;7.002;2023-09-19T07:08:08;16.80;71.70
5960;DHT22;3006;50.956;7.002;2023-09-19T07:10:39;16.80;71.80
5960;DHT22;3006;50.956;7.002;2023-09-19T07:13:09;16.80;71.90
5960;DHT22;3006;50.956;7.002;2023-09-19T07:15:38;16.80;72.00
5960;DHT22;3006;50.956;7.002;2023-09-19T07:18:13;16.90;71.70
5960;DHT22;3006;50.956;7.002;2023-09-19T07:20:44;16.90;71.50
5960;DHT22;3006;50.956;7.002;2023-09-19T07:23:16;16.80;71.60
5960;DHT22;3006;50.956;7.002;2023-09-19T07:25:46;16.80;71.60
5960;DHT22;3006;50.956;7.002;2023-09-19T07:28:15;16.70;71.80
5960;DHT22;3006;50.956;7.002;2023-09-19T07:30:44;16.80;72.00
5960;DHT22;3006;50.956;7.002;2023-09-19T07:33:12;16.90;71.30
5960;DHT22;3006;50.956;7.002;2023-09-19T07:35:40;16.80;71.30
5960;DHT22;3006;50.956;7.002;2023-09-19T07:38:08;16.90;71.10
5960;DHT22;3006;50.956;7.002;2023-09-19T07:40:38;16.90;71.50
5960;DHT22;3006;50.956;7.002;2023-09-19T07:43:10;17.00;71.10
5960;DHT22;3006;50.956;7.002;2023-09-19T07:45:38;17.00;71.20
5960;DHT22;3006;50.956;7.002;2023-09-19T07:48:07;17.00;71.10
5960;DHT22;3006;50.956;7.002;2023-09-19T07:50:41;17.00;71.30
5960;DHT22;3006;50.956;7.002;2023-09-19T07:53:12;17.00;71.00
5960;DHT22;3006;50.956;7.002;2023-09-19T07:55:40;17.00;70.60
5960;DHT22;3006;50.956;7.002;2023-09-19T07:58:10;17.00;70.40
5960;DHT22;3006;50.956;7.002;2023-09-19T08:00:40;17.00;70.40
5960;DHT22;3006;50.956;7.002;2023-09-19T08:03:08;17.00;70.60
5960;DHT22;3006;50.956;7.002;2023-09-19T08:05:44;17.20;70.40
5960;DHT22;3006;50.956;7.002;2023-09-19T08:08:13;17.20;70.10
5960;DHT22;3006;50.956;7.002;2023-09-19T08:10:42;17.20;69.30
5960;DHT22;3006;50.956;7.002;2023-09-19T08:13:14;17.20;69.50
5960;DHT22;3006;50.956;7.002;2023-09-19T08:15:44;17.40;69.30
5960;DHT22;3006;50.956;7.002;2023-09-19T08:18:13;17.40;68.90
5960;DHT22;3006;50.956;7.002;2023-09-19T08:20:42;17.40;69.10
5960;DHT22;3006;50.956;7.002;2023-09-19T08:23:13;17.50;68.60
5960;DHT22;3006;50.956;7.002;2023-09-19T08:25:41;17.50;68.50
5960;DHT22;3006;50.956;7.002;2023-09-19T08:28:09;17.50;69.20
5960;DHT22;3006;50.956;7.002;2023-09-19T08:30:42;17.50;69.00
5960;DHT22;3006;50.956;7.002;2023-09-19T08:33:10;17.50;68.50
5960;DHT22;3006;50.956;7.002;2023-09-19T08:35:38;17.50;69.00
5960;DHT22;3006;50.956;7.002;2023-09-19T08:38:08;17.60;68.00
5960;DHT22;3006;50.956;7.002;2023-09-19T08:40:37;17.80;68.30
5960;DHT22;3006;50.956;7.002;2023-09-19T08:43:07;17.90;68.40
5960;DHT22;3006;50.956;7.002;2023-09-19T08:45:35;17.90;67.50
5960;DHT22;3006;50.956;7.002;2023-09-19T08:48:16;18.00;67.50
5960;DHT22;3006;50.956;7.002;2023-09-19T08:50:49;18.00;66.90
5960;DHT22;3006;50.956;7.002;2023-09-19T08:53:27;18.00;66.60
5960;DHT22;3006;50.956;7.002;2023-09-19T08:55:59;17.80;66.60
5960;DHT22;3006;50.956;7.002;2023-09-19T08:58:33;17.80;66.80
5960;DHT22;3006;50.956;7.002;2023-09-19T09:01:03;17.90;67.20
5960;DHT22;3006;50.956;7.002;2023-09-19T09:03:35;18.10;66.70
5960;DHT22;3006;50.956;7.002;2023-09-19T09:06:06;18.20;65.60
5960;DHT22;3006;50.956;7.002;2023-09-19T09:08:35;18.10;65.00
5960;DHT22;3006;50.956;7.002;2023-09-19T09:11:03;18.30;65.30
5960;DHT22;3006;50.956;7.002;2023-09-19T09:13:35;18.20;64.20
5960;DHT22;3006;50.956;7.002;2023-09-19T09:16:04;18.10;64.40
5960;DHT22;3006;50.956;7.002;2023-09-19T09:18:32;18.10;63.80
5960;DHT22;3006;50.956;7.002;2023-09-19T09:21:02;18.00;63.00
5960;DHT22;3006;50.956;7.002;2023-09-19T09:23:32;18.00;63.30
5960;DHT22;3006;50.956;7.002;2023-09-19T09:26:00;18.10;64.40
5960;DHT22;3006;50.956;7.002;2023-09-19T09:28:33;18.10;64.20
5960;DHT22;3006;50.956;7.002;2023-09-19T09:31:02;18.30;63.30
5960;DHT22;3006;50.956;7.002;2023-09-19T09:33:35;18.40;63.00
5960;DHT22;3006;50.956;7.002;2023-09-19T09:36:06;18.40;62.20
5960;DHT22;3006;50.956;7.002;2023-09-19T09:38:44;18.40;62.50
5960;DHT22;3006;50.956;7.002;2023-09-19T09:41:13;18.50;62.70
5960;DHT22;3006;50.956;7.002;2023-09-19T09:43:54;18.60;62.30
5960;DHT22;3006;50.956;7.002;2023-09-19T09:46:22;18.60;60.70
5960;DHT22;3006;50.956;7.002;2023-09-19T09:49:27;18.70;61.70
5960;DHT22;3006;50.956;7.002;2023-09-19T09:52:03;18.70;60.20
5960;DHT22;3006;50.956;7.002;2023-09-19T09:54:38;18.60;60.20
5960;DHT22;3006;50.956;7.002;2023-09-19T09:57:10;18.60;59.90
5960;DHT22;3006;50.956;7.002;2023-09-19T09:59:48;18.70;60.40
5960;DHT22;3006;50.956;7.002;2023-09-19T10:02:18;18.80;60.00
5960;DHT22;3006;50.956;7.002;2023-09-19T10:04:53;18.80;59.80
5960;DHT22;3006;50.956;7.002;2023-09-19T10:07:38;18.80;59.80
5960;DHT22;3006;50.956;7.002;2023-09-19T10:10:11;18.90;60.70
5960;DHT22;3006;50.956;7.002;2023-09-19T10:12:49;19.10;60.60
5960;DHT22;3006;50.956;7.002;2023-09-19T10:15:18;19.20;60.10
5960;DHT22;3006;50.956;7.002;2023-09-19T10:17:48;19.30;59.60
5960;DHT22;3006;50.956;7.002;2023-09-19T10:20:17;19.40;59.00
5960;DHT22;3006;50.956;7.002;2023-09-19T10:23:03;19.30;58.40
5960;DHT22;3006;50.956;7.002;2023-09-19T10:25:37;19.20;59.30
5960;DHT22;3006;50.956;7.002;2023-09-19T10:28:08;19.20;59.00
5960;DHT22;3006;50.956;7.002;2023-09-19T10:30:41;19.20;58.70
5960;DHT22;3006;50.956;7.002;2023-09-19T10:33:12;19.10;59.20
5960;DHT22;3006;50.956;7.002;2023-09-19T10:35:43;19.20;58.50
5960;DHT22;3006;50.956;7.002;2023-09-19T10:38:14;19.20;59.00
5960;DHT22;3006;50.956;7.002;2023-09-19T10:40:49;19.30;58.70
5960;DHT22;3006;50.956;7.002;2023-09-19T10:43:21;19.40;58.50
5960;DHT22;3006;50.956;7.002;2023-09-19T10:45:50;19.30;58.40
5960;DHT22;3006;50.956;7.002;2023-09-19T10:48:20;19.30;59.00
5960;DHT22;3006;50.956;7.002;2023-09-19T10:50:58;19.30;58.60
5960;DHT22;3006;50.956;7.002;2023-09-19T10:53:41;19.30;58.60
5960;DHT22;3006;50.956;7.002;2023-09-19T10:56:17;19.30;58.60
5960;DHT22;3006;50.956;7.002;2023-09-19T10:58:48;19.40;58.60
5960;DHT22;3006;50.956;7.002;2023-09-19T11:01:17;19.50;58.60
5960;DHT22;3006;50.956;7.002;2023-09-19T11:03:45;19.50;57.50
5960;DHT22;3006;50.956;7.002;2023-09-19T11:06:17;19.50;57.90
5960;DHT22;3006;50.956;7.002;2023-09-19T11:08:55;19.50;57.90
5960;DHT22;3006;50.956;7.002;2023-09-19T11:11:45;19.70;57.70
5960;DHT22;3006;50.956;7.002;2023-09-19T11:14:39;19.60;57.70
5960;DHT22;3006;50.956;7.002;2023-09-19T11:17:40;19.70;58.20
5960;DHT22;3006;50.956;7.002;2023-09-19T11:20:20;20.00;57.40
5960;DHT22;3006;50.956;7.002;2023-09-19T11:23:21;19.70;57.20
5960;DHT22;3006;50.956;7.002;2023-09-19T11:25:55;19.70;56.90
5960;DHT22;3006;50.956;7.002;2023-09-19T11:28:31;19.90;55.60
5960;DHT22;3006;50.956;7.002;2023-09-19T11:30:59;19.90;55.40
5960;DHT22;3006;50.956;7.002;2023-09-19T11:33:46;19.90;55.20
5960;DHT22;3006;50.956;7.002;2023-09-19T11:36:16;20.00;54.70
5960;DHT22;3006;50.956;7.002;2023-09-19T11:38:59;20.00;55.30
5960;DHT22;3006;50.956;7.002;2023-09-19T11:41:40;20.10;55.00
5960;DHT22;3006;50.956;7.002;2023-09-19T11:44:36;20.10;54.40
5960;DHT22;3006;50.956;7.002;2023-09-19T11:47:06;20.30;53.50
5960;DHT22;3006;50.956;7.002;2023-09-19T11:49:40;20.10;52.90
5960;DHT22;3006;50.956;7.002;2023-09-19T11:52:10;19.90;53.90
5960;DHT22;3006;50.956;7.002;2023-09-19T11:54:41;20.00;53.40
5960;DHT22;3006;50.956;7.002;2023-09-19T11:57:20;19.90;54.20
5960;DHT22;3006;50.956;7.002;2023-09-19T11:59:48;20.10;53.90
5960;DHT22;3006;50.956;7.002;2023-09-19T12:02:35;20.30;53.90
5960;DHT22;3006;50.956;7.002;2023-09-19T12:05:08;20.50;53.50
5960;DHT22;3006;50.956;7.002;2023-09-19T12:07:42;20.80;52.20
5960;DHT22;3006;50.956;7.002;2023-09-19T12:10:11;20.90;51.40
5960;DHT22;3006;50.956;7.002;2023-09-19T12:12:48;20.80;51.90
5960;DHT22;3006;50.956;7.002;2023-09-19T12:15:23;20.90;50.90
5960;DHT22;3006;50.956;7.002;2023-09-19T12:17:55;20.70;50.80
5960;DHT22;3006;50.956;7.002;2023-09-19T12:20:23;20.70;50.60
5960;DHT22;3006;50.956;7.002;2023-09-19T12:22:51;20.60;50.60
5960;DHT22;3006;50.956;7.002;2023-09-19T12:25:20;20.70;50.60
5960;DHT22;3006;50.956;7.002;2023-09-19T12:27:50;20.90;50.40
5960;DHT22;3006;50.956;7.002;2023-09-19T12:30:20;21.00;49.90
5960;DHT22;3006;50.956;7.002;2023-09-19T12:32:55;21.10;49.80
5960;DHT22;3006;50.956;7.002;2023-09-19T12:35:28;20.90;48.80
5960;DHT22;3006;50.956;7.002;2023-09-19T12:37:57;20.80;49.10
5960;DHT22;3006;50.956;7.002;2023-09-19T12:40:26;20.90;49.00
5960;DHT22;3006;50.956;7.002;2023-09-19T12:42:59;21.10;48.80
5960;DHT22;3006;50.956;7.002;2023-09-19T12:45:30;21.10;49.60
5960;DHT22;3006;50.956;7.002;2023-09-19T12:48:17;21.30;48.40
5960;DHT22;3006;50.956;7.002;2023-09-19T12:51:09;21.20;49.00
5960;DHT22;3006;50.956;7.002;2023-09-19T12:53:40;21.50;48.70
5960;DHT22;3006;50.956;7.002;2023-09-19T12:56:12;21.50;47.60
5960;DHT22;3006;50.956;7.002;2023-09-19T12:58:53;21.70;47.90
5960;DHT22;3006;50.956;7.002;2023-09-19T13:01:22;21.80;47.30
5960;DHT22;3006;50.956;7.002;2023-09-19T13:04:14;21.70;47.60
5960;DHT22;3006;50.956;7.002;2023-09-19T13:06:45;21.70;48.40
5960;DHT22;3006;50.956;7.002;2023-09-19T13:09:16;21.70;48.00
5960;DHT22;3006;50.956;7.002;2023-09-19T13:11:44;21.70;48.00
5960;DHT22;3006;50.956;7.002;2023-09-19T13:14:17;21.70;47.60
5960;DHT22;3006;50.956;7.002;2023-09-19T13:17:02;21.80;47.40
5960;DHT22;3006;50.956;7.002;2023-09-19T13:19:39;21.70;48.00
5960;DHT22;3006;50.956;7.002;2023-09-19T13:22:36;21.70;46.60
5960;DHT22;3006;50.956;7.002;2023-09-19T13:25:06;21.70;48.70
5960;DHT22;3006;50.956;7.002;2023-09-19T13:27:35;22.30;47.80
5960;DHT22;3006;50.956;7.002;2023-09-19T13:30:05;22.40;46.40
5960;DHT22;3006;50.956;7.002;2023-09-19T13:32:34;22.00;46.50
5960;DHT22;3006;50.956;7.002;2023-09-19T13:35:02;21.70;47.70
5960;DHT22;3006;50.956;7.002;2023-09-19T13:37:33;21.50;48.60
5960;DHT22;3006;50.956;7.002;2023-09-19T13:40:03;21.70;49.80
5960;DHT22;3006;50.956;7.002;2023-09-19T13:42:31;21.70;49.70
5960;DHT22;3006;50.956;7.002;2023-09-19T13:45:00;21.90;50.40
5960;DHT22;3006;50.956;7.002;2023-09-19T13:47:29;21.90;49.80
5960;DHT22;3006;50.956;7.002;2023-09-19T13:49:58;21.70;50.00
5960;DHT22;3006;50.956;7.002;2023-09-19T13:52:26;21.60;50.10
5960;DHT22;3006;50.956;7.002;2023-09-19T13:54:56;21.70;51.50
5960;DHT22;3006;50.956;7.002;2023-09-19T13:57:24;21.90;50.20
5960;DHT22;3006;50.956;7.002;2023-09-19T13:59:53;21.80;50.70
5960;DHT22;3006;50.956;7.002;2023-09-19T14:02:21;21.90;50.20
5960;DHT22;3006;50.956;7.002;2023-09-19T14:04:52;21.90;50.70
5960;DHT22;3006;50.956;7.002;2023-09-19T14:07:20;22.70;49.70
5960;DHT22;3006;50.956;7.002;2023-09-19T14:09:48;23.10;47.20
5960;DHT22;3006;50.956;7.002;2023-09-19T14:12:16;22.40;47.50
5960;DHT22;3006;50.956;7.002;2023-09-19T14:14:44;22.20;48.40
5960;DHT22;3006;50.956;7.002;2023-09-19T14:17:13;22.20;48.50
5960;DHT22;3006;50.956;7.002;2023-09-19T14:19:42;21.90;48.40
5960;DHT22;3006;50.956;7.002;2023-09-19T14:22:15;21.70;49.70
5960;DHT22;3006;50.956;7.002;2023-09-19T14:24:43;21.70;49.30
5960;DHT22;3006;50.956;7.002;2023-09-19T14:27:11;21.50;49.60
5960;DHT22;3006;50.956;7.002;2023-09-19T14:29:39;21.30;49.70
5960;DHT22;3006;50.956;7.002;2023-09-19T14:32:08;21.20;50.00
5960;DHT22;3006;50.956;7.002;2023-09-19T14:34:36;21.10;50.20
5960;DHT22;3006;50.956;7.002;2023-09-19T14:37:08;21.10;50.50
5960;DHT22;3006;50.956;7.002;2023-09-19T14:39:40;21.10;50.30
5960;DHT22;3006;50.956;7.002;2023-09-19T14:42:11;21.10;50.30
5960;DHT22;3006;50.956;7.002;2023-09-19T14:44:41;20.90;50.90
5960;DHT22;3006;50.956;7.002;2023-09-19T14:47:09;21.00;52.10
5960;DHT22;3006;50.956;7.002;2023-09-19T14:49:40;21.00;51.60
5960;DHT22;3006;50.956;7.002;2023-09-19T14:52:11;21.10;51.80
5960;DHT22;3006;50.956;7.002;2023-09-19T14:54:44;21.00;51.50
5960;DHT22;3006;50.956;7.002;2023-09-19T14:57:12;21.00;52.10
5960;DHT22;3006;50.956;7.002;2023-09-19T14:59:41;21.10;52.30
5960;DHT22;3006;50.956;7.002;2023-09-19T15:02:09;21.00;52.00
5960;DHT22;3006;50.956;7.002;2023-09-19T15:04:38;20.90;52.40
5960;DHT22;3006;50.956;7.002;2023-09-19T15:07:08;21.10;52.40
5960;DHT22;3006;50.956;7.002;2023-09-19T15:09:36;20.90;51.90
5960;DHT22;3006;50.956;7.002;2023-09-19T15:12:06;20.90;52.40
5960;DHT22;3006;50.956;7.002;2023-09-19T15:14:34;20.80;52.20
5960;DHT22;3006;50.956;7.002;2023-09-19T15:17:03;20.90;52.20
5960;DHT22;3006;50.956;7.002;2023-09-19T15:19:31;20.80;51.70
5960;DHT22;3006;50.956;7.002;2023-09-19T15:22:00;20.70;52.10
5960;DHT22;3006;50.956;7.002;2023-09-19T15:24:28;20.60;52.30
5960;DHT22;3006;50.956;7.002;2023-09-19T15:26:56;20.60;52.60
5960;DHT22;3006;50.956;7.002;2023-09-19T15:29:27;20.50;52.30
5960;DHT22;3006;50.956;7.002;2023-09-19T15:31:55;20.50;52.50
5960;DHT22;3006;50.956;7.002;2023-09-19T15:34:25;20.60;52.90
5960;DHT22;3006;50.956;7.002;2023-09-19T15:36:54;20.50;52.20
5960;DHT22;3006;50.956;7.002;2023-09-19T15:39:22;20.50;52.20
5960;DHT22;3006;50.956;7.002;2023-09-19T15:41:51;20.50;52.00
5960;DHT22;3006;50.956;7.002;2023-09-19T15:44:19;20.50;52.00
5960;DHT22;3006;50.956;7.002;2023-09-19T15:46:48;20.50;52.90
5960;DHT22;3006;50.956;7.002;2023-09-19T15:49:17;20.70;53.10
5960;DHT22;3006;50.956;7.002;2023-09-19T15:51:45;20.70;52.30
5960;DHT22;3006;50.956;7.002;2023-09-19T15:54:15;20.70;52.00
5960;DHT22;3006;50.956;7.002;2023-09-19T15:56:44;20.80;52.50
5960;DHT22;3006;50.956;7.002;2023-09-19T15:59:12;20.80;53.50
5960;DHT22;3006;50.956;7.002;2023-09-19T16:01:42;20.90;52.90
5960;DHT22;3006;50.956;7.002;2023-09-19T16:04:12;20.80;52.10
5960;DHT22;3006;50.956;7.002;2023-09-19T16:06:42;20.70;52.20
5960;DHT22;3006;50.956;7.002;2023-09-19T16:09:10;20.70;52.80
5960;DHT22;3006;50.956;7.002;2023-09-19T16:11:38;20.70;53.20
5960;DHT22;3006;50.956;7.002;2023-09-19T16:14:07;20.80;53.30
5960;DHT22;3006;50.956;7.002;2023-09-19T16:16:37;21.00;53.90
5960;DHT22;3006;50.956;7.002;2023-09-19T16:19:05;21.00;53.20
5960;DHT22;3006;50.956;7.002;2023-09-19T16:21:38;20.90;53.10
5960;DHT22;3006;50.956;7.002;2023-09-19T16:24:09;20.90;53.70
5960;DHT22;3006;50.956;7.002;2023-09-19T16:26:38;20.90;53.00
5960;DHT22;3006;50.956;7.002;2023-09-19T16:29:06;20.90;52.70